createdAt,value
2022-09-24T00:03:04.731Z,57.3
2022-09-24T00:08:26.400Z,57.2
2022-09-24T00:14:03.942Z,57.1
2022-09-24T00:19:40.292Z,57.1
2022-09-24T00:25:17.240Z,57.1
2022-09-24T00:30:54.621Z,57
2022-09-24T00:36:32.536Z,56.9
2022-09-24T00:42:10.297Z,56.9
2022-09-24T00:47:16.401Z,56.9
2022-09-24T00:52:38.112Z,56.8
2022-09-24T00:57:44.529Z,56.8
2022-09-24T01:03:07.158Z,56.8
2022-09-24T01:08:29.498Z,56.7
2022-09-24T01:13:35.171Z,56.7
2022-09-24T01:18:57.903Z,56.6
2022-09-24T01:24:21.987Z,56.6
2022-09-24T01:29:43.263Z,56.5
2022-09-24T01:35:07.428Z,56.5
2022-09-24T01:40:29.692Z,56.4
2022-09-24T01:45:35.635Z,56.4
2022-09-24T01:50:59.765Z,56.4
2022-09-24T01:56:22.074Z,56.3
2022-09-24T02:01:44.265Z,56.3
2022-09-24T02:06:50.863Z,56.2
2022-09-24T02:11:57.731Z,56.1
2022-09-24T02:17:34.533Z,56.1
2022-09-24T02:22:56.706Z,56.1
2022-09-24T02:28:19.317Z,56.1
2022-09-24T02:33:57.194Z,56
2022-09-24T02:39:18.912Z,55.9
2022-09-24T02:44:41.410Z,55.9
2022-09-24T02:50:18.759Z,55.9
2022-09-24T02:55:55.873Z,55.8
2022-09-24T03:01:18.081Z,55.8
2022-09-24T03:06:56.341Z,55.8
2022-09-24T03:12:23.488Z,55.7
2022-09-24T03:17:45.175Z,55.6
2022-09-24T03:23:21.939Z,55.6
2022-09-24T03:28:27.848Z,55.5
2022-09-24T03:33:50.472Z,55.5
2022-09-24T03:39:12.190Z,55.4
2022-09-24T03:44:33.409Z,55.4
2022-09-24T03:49:55.010Z,55.4
2022-09-24T03:55:16.797Z,55.3
2022-09-24T04:00:41.049Z,55.3
2022-09-24T04:05:49.200Z,55.3
2022-09-24T04:11:29.706Z,55.2
2022-09-24T04:16:51.201Z,55.2
2022-09-24T04:22:28.707Z,55.1
2022-09-24T04:28:05.356Z,55.1
2022-09-24T04:33:27.317Z,55
2022-09-24T04:39:05.707Z,54.9
2022-09-24T04:44:43.496Z,54.9
2022-09-24T04:50:21.483Z,54.8
2022-09-24T04:55:49.858Z,54.8
2022-09-24T05:01:27.923Z,54.7
2022-09-24T05:07:11.836Z,54.7
2022-09-24T05:12:54.473Z,54.6
2022-09-24T05:18:17.997Z,54.6
2022-09-24T05:23:40.036Z,54.5
2022-09-24T05:29:02.176Z,54.5
2022-09-24T05:34:40.208Z,54.4
2022-09-24T05:40:07.548Z,54.4
2022-09-24T05:45:31.045Z,54.4
2022-09-24T05:51:08.947Z,54.3
2022-09-24T05:56:20.911Z,54.3
2022-09-24T06:01:43.887Z,54.2
2022-09-24T06:06:55.633Z,54.1
2022-09-24T06:12:18.260Z,54.1
2022-09-24T06:17:25.768Z,53.9
2022-09-24T06:22:48.475Z,53.9
2022-09-24T06:28:10.822Z,53.8
2022-09-24T06:33:22.065Z,53.8
2022-09-24T06:38:44.913Z,53.8
2022-09-24T06:43:52.250Z,53.7
2022-09-24T06:49:14.587Z,53.6
2022-09-24T06:54:55.557Z,53.6
2022-09-24T07:00:20.116Z,53.6
2022-09-24T07:05:43.842Z,53.5
2022-09-24T07:11:20.965Z,53.4
2022-09-24T07:16:58.826Z,53.4
2022-09-24T07:22:39.428Z,53.3
2022-09-24T07:28:17.600Z,53.2
2022-09-24T07:33:54.932Z,53.1
2022-09-24T07:39:17.265Z,53.1
2022-09-24T07:44:55.504Z,53.1
2022-09-24T07:50:22.674Z,53
2022-09-24T07:55:44.879Z,53
2022-09-24T08:01:07.169Z,52.9
2022-09-24T08:06:47.623Z,52.9
2022-09-24T08:11:54.649Z,52.8
2022-09-24T08:17:33.021Z,52.8
2022-09-24T08:23:10.730Z,52.7
2022-09-24T08:28:48.230Z,52.7
2022-09-24T08:34:25.699Z,52.6
2022-09-24T08:40:07.252Z,52.6
2022-09-24T08:45:45.788Z,52.4
2022-09-24T08:51:23.968Z,52.3
2022-09-24T08:56:46.448Z,52.4
2022-09-24T09:02:26.533Z,52.8
2022-09-24T09:08:21.536Z,53.2
2022-09-24T09:14:31.239Z,53.7
2022-09-24T09:19:54.033Z,54.2
2022-09-24T09:25:36.666Z,54.6
2022-09-24T09:30:47.805Z,55.1
2022-09-24T09:36:13.952Z,55.6
2022-09-24T09:41:41.976Z,56.1
2022-09-24T09:47:08.368Z,56.5
2022-09-24T09:52:30.881Z,57
2022-09-24T09:57:52.583Z,57.5
2022-09-24T10:03:15.635Z,57.9
2022-09-24T10:08:59.887Z,58.3
2022-09-24T10:14:37.741Z,58.6
2022-09-24T10:20:17.684Z,58.9
2022-09-24T10:26:00.628Z,59.1
2022-09-24T10:31:07.216Z,59.3
2022-09-24T10:36:14.085Z,59.4
2022-09-24T10:41:26.536Z,59.6
2022-09-24T10:46:33.491Z,59.8
2022-09-24T10:52:01.516Z,60
2022-09-24T10:56:53.260Z,60.3
2022-09-24T11:02:16.511Z,60.5
2022-09-24T11:07:55.598Z,60.8
2022-09-24T11:13:35.637Z,61.1
2022-09-24T11:19:13.643Z,61.3
2022-09-24T11:24:20.257Z,61.6
2022-09-24T11:29:58.603Z,61.9
2022-09-24T11:35:25.567Z,62.2
2022-09-24T11:41:02.909Z,62.4
2022-09-24T11:46:41.394Z,62.6
2022-09-24T11:52:22.337Z,62.8
2022-09-24T11:57:47.121Z,63
2022-09-24T12:03:09.705Z,63.2
2022-09-24T12:08:47.216Z,63.4
2022-09-24T12:14:08.814Z,63.6
2022-09-24T12:19:31.548Z,63.7
2022-09-24T12:24:39.071Z,63.8
2022-09-24T12:30:01.782Z,63.8
2022-09-24T12:35:28.794Z,63.8
2022-09-24T12:40:56.734Z,63.8
2022-09-24T12:46:39.985Z,63.8
2022-09-24T12:52:02.304Z,63.9
2022-09-24T12:57:25.796Z,63.9
2022-09-24T13:03:05.583Z,63.8
2022-09-24T13:08:47.951Z,63.8
2022-09-24T13:14:14.406Z,63.8
2022-09-24T13:19:55.605Z,63.8
2022-09-24T13:25:38.351Z,63.8
2022-09-24T13:31:22.598Z,63.8
2022-09-24T13:37:01.990Z,63.7
2022-09-24T13:42:40.094Z,63.7
2022-09-24T13:48:18.523Z,63.6
2022-09-24T13:53:55.997Z,63.6
2022-09-24T13:59:33.589Z,63.5
2022-09-24T14:05:12.406Z,63.5
2022-09-24T14:10:34.398Z,63.4
2022-09-24T14:15:25.934Z,63.4
2022-09-24T14:21:04.804Z,63.4
2022-09-24T14:26:27.000Z,63.3
2022-09-24T14:32:06.795Z,63.3
2022-09-24T14:37:47.763Z,63.2
2022-09-24T14:43:10.651Z,63.1
2022-09-24T14:48:48.764Z,63.1
2022-09-24T14:54:26.942Z,63.1
2022-09-24T14:59:52.036Z,63
2022-09-24T15:05:34.987Z,62.9
2022-09-24T15:11:12.463Z,62.9
2022-09-24T15:16:50.645Z,62.9
2022-09-24T15:22:28.857Z,62.8
2022-09-24T15:28:09.766Z,62.8
2022-09-24T15:33:47.222Z,62.7
2022-09-24T15:39:10.193Z,62.6
2022-09-24T15:44:34.132Z,62.6
2022-09-24T15:49:57.133Z,62.6
2022-09-24T15:55:42.307Z,62.5
2022-09-24T16:01:09.855Z,62.4
2022-09-24T16:06:33.173Z,62.4
2022-09-24T16:12:15.140Z,62.4
2022-09-24T16:17:40.687Z,62.3
2022-09-24T16:22:53.245Z,62.3
2022-09-24T16:28:31.736Z,62.2
2022-09-24T16:34:09.856Z,62.1
2022-09-24T16:39:47.042Z,62.1
2022-09-24T16:45:25.703Z,62.1
2022-09-24T16:50:52.759Z,62
2022-09-24T16:55:33.703Z,61.9
2022-09-24T17:00:56.317Z,61.9
2022-09-24T17:06:39.748Z,61.9
2022-09-24T17:12:24.242Z,61.8
2022-09-24T17:17:50.082Z,61.8
2022-09-24T17:23:28.530Z,61.7
2022-09-24T17:29:10.348Z,61.7
2022-09-24T17:35:05.212Z,61.6
2022-09-24T17:40:43.858Z,61.6
2022-09-24T17:46:08.751Z,61.5
2022-09-24T17:51:33.886Z,61.4
2022-09-24T17:56:57.118Z,61.4
2022-09-24T18:02:19.545Z,61.3
2022-09-24T18:07:58.050Z,61.3
2022-09-24T18:13:25.202Z,61.2
2022-09-24T18:19:03.850Z,61.2
2022-09-24T18:24:27.007Z,61.1
2022-09-24T18:29:33.097Z,61.1
2022-09-24T18:35:11.413Z,61.1
2022-09-24T18:40:34.138Z,60.9
2022-09-24T18:46:12.417Z,60.9
2022-09-24T18:51:35.367Z,60.9
2022-09-24T18:56:57.582Z,60.8
2022-09-24T19:02:22.034Z,60.7
2022-09-24T19:08:00.593Z,60.6
2022-09-24T19:13:42.859Z,60.5
2022-09-24T19:19:05.423Z,60.4
2022-09-24T19:24:32.259Z,60.4
2022-09-24T19:29:39.289Z,60.3
2022-09-24T19:34:46.994Z,60.3
2022-09-24T19:40:10.241Z,60.3
2022-09-24T19:45:02.508Z,60.2
2022-09-24T19:50:11.601Z,60.1
2022-09-24T19:55:23.744Z,60.1
2022-09-24T20:00:47.243Z,60
2022-09-24T20:06:10.541Z,60
2022-09-24T20:11:22.985Z,59.9
2022-09-24T20:16:14.594Z,59.9
2022-09-24T20:21:36.475Z,59.8
2022-09-24T20:26:31.055Z,59.8
2022-09-24T20:31:24.601Z,59.7
2022-09-24T20:36:50.292Z,59.7
2022-09-24T20:42:11.404Z,59.6
2022-09-24T20:47:40.312Z,59.6
2022-09-24T20:52:48.634Z,59.5
2022-09-24T20:58:11.026Z,59.4
2022-09-24T21:04:00.960Z,59.4
2022-09-24T21:09:38.980Z,59.3
2022-09-24T21:15:18.533Z,59.3
2022-09-24T21:21:30.329Z,59.2
2022-09-24T21:27:33.627Z,59.2
2022-09-24T21:32:56.610Z,59.1
2022-09-24T21:38:34.354Z,59.1
2022-09-24T21:44:12.412Z,59
2022-09-24T21:49:33.898Z,58.9
2022-09-24T21:54:40.425Z,58.9
2022-09-24T21:59:46.864Z,58.8
2022-09-24T22:05:24.691Z,58.8
2022-09-24T22:10:46.718Z,58.8
2022-09-24T22:16:23.777Z,58.7
2022-09-24T22:22:02.126Z,58.6
2022-09-24T22:32:22.435Z,58.5
2022-09-24T22:37:46.242Z,58.4
2022-09-24T22:43:27.066Z,58.4
2022-09-24T22:48:51.044Z,58.4
2022-09-24T22:54:30.750Z,58.3
2022-09-24T23:00:09.641Z,58.3
2022-09-24T23:05:55.158Z,58.2
2022-09-24T23:11:17.299Z,58.1
2022-09-24T23:16:55.543Z,58.1
2022-09-24T23:22:17.998Z,58
2022-09-24T23:27:56.779Z,58
2022-09-24T23:33:34.345Z,57.9
2022-09-24T23:39:11.842Z,57.9
2022-09-24T23:44:33.078Z,57.8
2022-09-24T23:55:17.838Z,57.7
